Terminal Aerodrome Forecast
Issued by NWS Portland, OR

Home | Current Version | Previous Version | Text Only | Print | Product List | Glossary On
Versions: 1 2 3 4 5 6 7 8 9 10 11 12 13 14 15 16 17 18 19 20 21 22 23 24 25 26 27 28 29 30
000
FTUS46 KPQR 272320
TAFSLE
TAF
KSLE 272320Z 2800/2824 18012KT P6SM -SHRA SCT030 OVC050
     FM280100 19010KT P6SM -SHRA BKN030 OVC040
     FM280500 20008KT P6SM -SHRA SCT015 BKN040
     FM281300 20004KT 6SM BR VCSH FEW008 SCT015 BKN040
     FM281600 20008KT P6SM VCSH FEW015 BKN040=

USA.gov is the U.S. government's official web portal to all federal, state and local government web resources and services.